This is the latest recevied weather packets stored in our database for station/object SP2WM. If no packets are shown the sender has not sent any weather packets the latest 1 day(s).
| Time | Temp. | Humidity | Pressure | Rain* | Wind** | Luminosity | Snow |
|---|---|---|---|---|---|---|---|
| 1778062828 | 20.56° C | 61% | 1001.8 hPa | 0 mm | - | - | - |
| 1778062235 | 20° C | 62% | 1001.8 hPa | 0 mm | - | - | - |
| 1778061027 | 20° C | 62% | 1001.7 hPa | 0 mm | - | - | - |
| 1778060435 | 19.44° C | 63% | 1001.7 hPa | 0 mm | - | - | - |
| 1778059833 | 19.44° C | 63% | 1001.6 hPa | 0 mm | - | - | - |
| 1778058042 | 18.33° C | 66% | 1001.7 hPa | 0 mm | - | - | - |
| 1778055636 | 17.78° C | 64% | 1001.9 hPa | 0 mm | - | - | - |
| 1778054443 | 18.33° C | 64% | 1001.5 hPa | 0 mm | - | - | - |
| 1778053843 | 17.22° C | 65% | 1001.6 hPa | 0 mm | - | - | - |
| 1778052625 | 16.11° C | 69% | 1001.5 hPa | 0 mm | - | - | - |
| 1778052043 | 15.56° C | 70% | 1001.4 hPa | 0 mm | - | - | - |
| 1778051430 | 15° C | 71% | 1001.5 hPa | 0 mm | - | - | - |
| 1778049636 | 15° C | 72% | 1002.1 hPa | 0 mm | - | - | - |
| 1778049036 | 15° C | 73% | 1002 hPa | 0 mm | - | - | - |
| 1778047227 | 13.33° C | 76% | 1002.3 hPa | 0 mm | - | - | - |
| 1778045425 | 12.78° C | 79% | 1002.8 hPa | 0 mm | - | - | - |
| 1778044232 | 12.22° C | 80% | 1002.8 hPa | 0 mm | - | - | - |
| 1778043628 | 12.22° C | 80% | 1002.8 hPa | 0 mm | - | - | - |
| 1778043025 | 11.67° C | 82% | 1002.7 hPa | 0 mm | - | - | - |
| 1778041835 | 11.11° C | 84% | 1002.8 hPa | 0 mm | - | - | - |
| 1778041235 | 11.11° C | 84% | 1002.8 hPa | 0 mm | - | - | - |
| 1778040640 | 11.11° C | 85% | 1003.2 hPa | 0 mm | - | - | - |
| 1778039440 | 10.56° C | 87% | 1003.2 hPa | 0 mm | - | - | - |
| 1778038225 | 10° C | 87% | 1003.3 hPa | 0 mm | - | - | - |
| 1778037642 | 10° C | 88% | 1003.4 hPa | 0 mm | - | - | - |
* Rain latest hour (hover to see other rain measurements)
** Current wind speed in m/s (hover to see current wind gust speed)